sensor_id;sensor_type;location;lat;lon;timestamp;P1;durP1;ratioP1;P2;durP2;ratioP2
38717;SDS011;24468;52.128;9.278;2023-05-17T00:00:53;2.78;;;1.48;;
38717;SDS011;24468;52.128;9.278;2023-05-17T00:03:19;7.72;;;1.70;;
38717;SDS011;24468;52.128;9.278;2023-05-17T00:05:44;2.78;;;1.17;;
38717;SDS011;24468;52.128;9.278;2023-05-17T00:08:10;8.57;;;2.10;;
38717;SDS011;24468;52.128;9.278;2023-05-17T00:10:35;2.85;;;1.77;;
38717;SDS011;24468;52.128;9.278;2023-05-17T00:13:01;5.85;;;1.77;;
38717;SDS011;24468;52.128;9.278;2023-05-17T00:15:27;5.97;;;1.80;;
38717;SDS011;24468;52.128;9.278;2023-05-17T00:17:53;6.90;;;2.10;;
38717;SDS011;24468;52.128;9.278;2023-05-17T00:20:19;5.47;;;2.25;;
38717;SDS011;24468;52.128;9.278;2023-05-17T00:22:45;7.60;;;3.03;;
38717;SDS011;24468;52.128;9.278;2023-05-17T00:25:11;3.97;;;1.88;;
38717;SDS011;24468;52.128;9.278;2023-05-17T00:27:37;6.03;;;2.10;;
38717;SDS011;24468;52.128;9.278;2023-05-17T00:30:03;6.20;;;2.33;;
38717;SDS011;24468;52.128;9.278;2023-05-17T00:32:29;6.07;;;2.45;;
38717;SDS011;24468;52.128;9.278;2023-05-17T00:34:55;4.45;;;1.83;;
38717;SDS011;24468;52.128;9.278;2023-05-17T00:37:21;7.18;;;1.88;;
38717;SDS011;24468;52.128;9.278;2023-05-17T00:39:46;4.07;;;1.50;;
38717;SDS011;24468;52.128;9.278;2023-05-17T00:42:12;5.25;;;1.88;;
38717;SDS011;24468;52.128;9.278;2023-05-17T00:44:38;8.18;;;2.03;;
38717;SDS011;24468;52.128;9.278;2023-05-17T00:47:03;5.63;;;1.90;;
38717;SDS011;24468;52.128;9.278;2023-05-17T00:49:29;5.28;;;1.90;;
38717;SDS011;24468;52.128;9.278;2023-05-17T00:51:55;6.78;;;2.55;;
38717;SDS011;24468;52.128;9.278;2023-05-17T00:54:20;7.57;;;2.38;;
38717;SDS011;24468;52.128;9.278;2023-05-17T00:56:47;3.65;;;1.95;;
38717;SDS011;24468;52.128;9.278;2023-05-17T00:59:13;10.27;;;2.75;;
38717;SDS011;24468;52.128;9.278;2023-05-17T01:01:40;5.60;;;2.47;;
38717;SDS011;24468;52.128;9.278;2023-05-17T01:04:07;5.10;;;1.98;;
38717;SDS011;24468;52.128;9.278;2023-05-17T01:06:37;6.38;;;2.25;;
38717;SDS011;24468;52.128;9.278;2023-05-17T01:09:03;5.85;;;2.45;;
38717;SDS011;24468;52.128;9.278;2023-05-17T01:12:14;10.82;;;2.17;;
38717;SDS011;24468;52.128;9.278;2023-05-17T01:14:27;12.27;;;3.35;;
38717;SDS011;24468;52.128;9.278;2023-05-17T01:20:43;4.70;;;2.38;;
38717;SDS011;24468;52.128;9.278;2023-05-17T01:29:03;8.80;;;3.08;;
38717;SDS011;24468;52.128;9.278;2023-05-17T01:31:31;6.70;;;2.95;;
38717;SDS011;24468;52.128;9.278;2023-05-17T01:33:56;8.32;;;2.65;;
38717;SDS011;24468;52.128;9.278;2023-05-17T01:36:22;10.32;;;2.42;;
38717;SDS011;24468;52.128;9.278;2023-05-17T01:38:50;10.50;;;3.00;;
38717;SDS011;24468;52.128;9.278;2023-05-17T01:43:59;5.18;;;2.10;;
38717;SDS011;24468;52.128;9.278;2023-05-17T01:52:24;11.02;;;2.75;;
38717;SDS011;24468;52.128;9.278;2023-05-17T01:54:55;6.95;;;3.13;;
38717;SDS011;24468;52.128;9.278;2023-05-17T01:57:47;10.32;;;2.47;;
38717;SDS011;24468;52.128;9.278;2023-05-17T02:00:16;8.65;;;3.15;;
38717;SDS011;24468;52.128;9.278;2023-05-17T02:02:43;11.23;;;3.67;;
38717;SDS011;24468;52.128;9.278;2023-05-17T02:05:09;5.93;;;2.88;;
38717;SDS011;24468;52.128;9.278;2023-05-17T02:07:35;8.98;;;2.90;;
38717;SDS011;24468;52.128;9.278;2023-05-17T02:10:00;8.43;;;2.60;;
38717;SDS011;24468;52.128;9.278;2023-05-17T02:12:26;6.43;;;2.40;;
38717;SDS011;24468;52.128;9.278;2023-05-17T02:14:52;7.18;;;2.60;;
38717;SDS011;24468;52.128;9.278;2023-05-17T02:17:17;12.75;;;4.05;;
38717;SDS011;24468;52.128;9.278;2023-05-17T02:19:43;9.10;;;2.70;;
38717;SDS011;24468;52.128;9.278;2023-05-17T02:22:08;10.65;;;3.40;;
38717;SDS011;24468;52.128;9.278;2023-05-17T02:24:34;12.13;;;2.78;;
38717;SDS011;24468;52.128;9.278;2023-05-17T02:27:00;13.43;;;3.25;;
38717;SDS011;24468;52.128;9.278;2023-05-17T02:29:25;11.10;;;3.35;;
38717;SDS011;24468;52.128;9.278;2023-05-17T02:31:51;6.72;;;3.13;;
38717;SDS011;24468;52.128;9.278;2023-05-17T02:34:16;11.93;;;4.03;;
38717;SDS011;24468;52.128;9.278;2023-05-17T02:36:42;9.80;;;3.72;;
38717;SDS011;24468;52.128;9.278;2023-05-17T02:39:08;12.55;;;2.97;;
38717;SDS011;24468;52.128;9.278;2023-05-17T02:41:34;9.68;;;2.83;;
38717;SDS011;24468;52.128;9.278;2023-05-17T02:43:59;9.55;;;3.22;;
38717;SDS011;24468;52.128;9.278;2023-05-17T02:46:25;14.43;;;3.55;;
38717;SDS011;24468;52.128;9.278;2023-05-17T02:48:50;9.75;;;3.17;;
38717;SDS011;24468;52.128;9.278;2023-05-17T02:51:16;11.50;;;3.38;;
38717;SDS011;24468;52.128;9.278;2023-05-17T02:53:42;8.90;;;3.33;;
38717;SDS011;24468;52.128;9.278;2023-05-17T02:56:07;11.63;;;4.18;;
38717;SDS011;24468;52.128;9.278;2023-05-17T02:58:33;10.07;;;3.25;;
38717;SDS011;24468;52.128;9.278;2023-05-17T03:00:58;8.95;;;3.05;;
38717;SDS011;24468;52.128;9.278;2023-05-17T03:03:24;11.05;;;3.58;;
38717;SDS011;24468;52.128;9.278;2023-05-17T03:05:49;9.00;;;3.30;;
38717;SDS011;24468;52.128;9.278;2023-05-17T03:08:15;12.52;;;3.30;;
38717;SDS011;24468;52.128;9.278;2023-05-17T03:10:40;12.18;;;3.22;;
38717;SDS011;24468;52.128;9.278;2023-05-17T03:13:06;11.10;;;3.58;;
38717;SDS011;24468;52.128;9.278;2023-05-17T03:15:31;9.38;;;3.10;;
38717;SDS011;24468;52.128;9.278;2023-05-17T03:17:57;16.70;;;4.00;;
38717;SDS011;24468;52.128;9.278;2023-05-17T03:20:22;11.82;;;3.70;;
38717;SDS011;24468;52.128;9.278;2023-05-17T03:22:48;8.02;;;3.35;;
38717;SDS011;24468;52.128;9.278;2023-05-17T03:25:14;11.63;;;3.83;;
38717;SDS011;24468;52.128;9.278;2023-05-17T03:27:39;15.43;;;3.90;;
38717;SDS011;24468;52.128;9.278;2023-05-17T03:30:05;21.58;;;4.30;;
38717;SDS011;24468;52.128;9.278;2023-05-17T03:32:32;16.85;;;3.83;;
38717;SDS011;24468;52.128;9.278;2023-05-17T03:34:57;11.57;;;4.00;;
38717;SDS011;24468;52.128;9.278;2023-05-17T03:37:23;10.60;;;3.40;;
38717;SDS011;24468;52.128;9.278;2023-05-17T03:39:49;10.73;;;3.33;;
38717;SDS011;24468;52.128;9.278;2023-05-17T03:42:14;14.55;;;3.67;;
38717;SDS011;24468;52.128;9.278;2023-05-17T03:44:40;14.27;;;3.78;;
38717;SDS011;24468;52.128;9.278;2023-05-17T03:47:05;15.10;;;3.58;;
38717;SDS011;24468;52.128;9.278;2023-05-17T03:49:31;9.40;;;3.60;;
38717;SDS011;24468;52.128;9.278;2023-05-17T03:51:58;11.60;;;3.55;;
38717;SDS011;24468;52.128;9.278;2023-05-17T03:54:23;8.30;;;3.38;;
38717;SDS011;24468;52.128;9.278;2023-05-17T03:56:49;15.27;;;5.20;;
38717;SDS011;24468;52.128;9.278;2023-05-17T03:59:14;11.05;;;3.90;;
38717;SDS011;24468;52.128;9.278;2023-05-17T04:01:41;9.65;;;2.97;;
38717;SDS011;24468;52.128;9.278;2023-05-17T04:04:07;15.48;;;4.45;;
38717;SDS011;24468;52.128;9.278;2023-05-17T04:06:33;15.65;;;3.42;;
38717;SDS011;24468;52.128;9.278;2023-05-17T04:08:59;9.73;;;3.95;;
38717;SDS011;24468;52.128;9.278;2023-05-17T04:11:25;13.18;;;3.63;;
38717;SDS011;24468;52.128;9.278;2023-05-17T04:13:52;12.77;;;4.65;;
38717;SDS011;24468;52.128;9.278;2023-05-17T04:16:18;11.85;;;3.08;;
38717;SDS011;24468;52.128;9.278;2023-05-17T04:18:44;11.00;;;3.08;;
38717;SDS011;24468;52.128;9.278;2023-05-17T04:21:10;14.05;;;3.72;;
38717;SDS011;24468;52.128;9.278;2023-05-17T04:23:36;11.80;;;3.70;;
38717;SDS011;24468;52.128;9.278;2023-05-17T04:26:02;12.13;;;3.38;;
38717;SDS011;24468;52.128;9.278;2023-05-17T04:28:30;14.70;;;5.03;;
38717;SDS011;24468;52.128;9.278;2023-05-17T04:30:56;9.27;;;2.92;;
38717;SDS011;24468;52.128;9.278;2023-05-17T04:33:22;17.92;;;3.90;;
38717;SDS011;24468;52.128;9.278;2023-05-17T04:35:49;7.10;;;2.95;;
38717;SDS011;24468;52.128;9.278;2023-05-17T04:38:18;13.13;;;2.88;;
38717;SDS011;24468;52.128;9.278;2023-05-17T04:40:44;15.13;;;3.80;;
38717;SDS011;24468;52.128;9.278;2023-05-17T04:43:09;15.48;;;4.15;;
38717;SDS011;24468;52.128;9.278;2023-05-17T04:45:35;9.88;;;3.13;;
38717;SDS011;24468;52.128;9.278;2023-05-17T04:48:01;10.68;;;3.45;;
38717;SDS011;24468;52.128;9.278;2023-05-17T04:50:27;11.13;;;4.05;;
38717;SDS011;24468;52.128;9.278;2023-05-17T04:52:53;9.27;;;3.67;;
38717;SDS011;24468;52.128;9.278;2023-05-17T04:55:18;14.63;;;3.20;;
38717;SDS011;24468;52.128;9.278;2023-05-17T04:57:44;9.23;;;2.80;;
38717;SDS011;24468;52.128;9.278;2023-05-17T05:00:09;12.35;;;3.13;;
38717;SDS011;24468;52.128;9.278;2023-05-17T05:02:36;9.90;;;3.13;;
38717;SDS011;24468;52.128;9.278;2023-05-17T05:05:02;11.38;;;3.33;;
38717;SDS011;24468;52.128;9.278;2023-05-17T05:07:31;14.52;;;3.22;;
38717;SDS011;24468;52.128;9.278;2023-05-17T05:09:56;14.35;;;3.47;;
38717;SDS011;24468;52.128;9.278;2023-05-17T05:12:22;15.85;;;3.53;;
38717;SDS011;24468;52.128;9.278;2023-05-17T05:14:49;12.38;;;2.67;;
38717;SDS011;24468;52.128;9.278;2023-05-17T05:17:14;14.57;;;3.67;;
38717;SDS011;24468;52.128;9.278;2023-05-17T05:19:40;13.70;;;4.20;;
38717;SDS011;24468;52.128;9.278;2023-05-17T05:22:05;22.45;;;3.83;;
38717;SDS011;24468;52.128;9.278;2023-05-17T05:24:31;15.63;;;3.88;;
38717;SDS011;24468;52.128;9.278;2023-05-17T05:26:56;10.93;;;2.90;;
38717;SDS011;24468;52.128;9.278;2023-05-17T05:29:22;10.02;;;3.17;;
38717;SDS011;24468;52.128;9.278;2023-05-17T05:31:48;15.93;;;4.35;;
38717;SDS011;24468;52.128;9.278;2023-05-17T05:34:13;11.48;;;2.55;;
38717;SDS011;24468;52.128;9.278;2023-05-17T05:36:39;12.45;;;2.45;;
38717;SDS011;24468;52.128;9.278;2023-05-17T05:39:04;12.35;;;3.50;;
38717;SDS011;24468;52.128;9.278;2023-05-17T05:41:30;15.40;;;2.95;;
38717;SDS011;24468;52.128;9.278;2023-05-17T05:43:55;9.02;;;2.25;;
38717;SDS011;24468;52.128;9.278;2023-05-17T05:46:21;11.38;;;2.42;;
38717;SDS011;24468;52.128;9.278;2023-05-17T05:48:46;13.23;;;3.00;;
38717;SDS011;24468;52.128;9.278;2023-05-17T05:51:12;12.27;;;2.50;;
38717;SDS011;24468;52.128;9.278;2023-05-17T05:53:37;9.40;;;2.20;;
38717;SDS011;24468;52.128;9.278;2023-05-17T05:56:03;10.52;;;2.60;;
38717;SDS011;24468;52.128;9.278;2023-05-17T05:58:29;13.40;;;3.05;;
38717;SDS011;24468;52.128;9.278;2023-05-17T06:00:55;10.18;;;2.22;;
38717;SDS011;24468;52.128;9.278;2023-05-17T06:03:22;11.70;;;3.17;;
38717;SDS011;24468;52.128;9.278;2023-05-17T06:05:48;12.52;;;3.15;;
38717;SDS011;24468;52.128;9.278;2023-05-17T06:08:14;10.65;;;2.33;;
38717;SDS011;24468;52.128;9.278;2023-05-17T06:10:39;10.85;;;2.90;;
38717;SDS011;24468;52.128;9.278;2023-05-17T06:13:05;9.82;;;2.60;;
38717;SDS011;24468;52.128;9.278;2023-05-17T06:15:30;21.90;;;2.50;;
38717;SDS011;24468;52.128;9.278;2023-05-17T06:17:56;8.35;;;1.90;;
38717;SDS011;24468;52.128;9.278;2023-05-17T06:20:21;8.32;;;2.05;;
38717;SDS011;24468;52.128;9.278;2023-05-17T06:22:47;9.60;;;2.38;;
38717;SDS011;24468;52.128;9.278;2023-05-17T06:25:13;10.45;;;2.80;;
38717;SDS011;24468;52.128;9.278;2023-05-17T06:27:38;10.95;;;2.28;;
38717;SDS011;24468;52.128;9.278;2023-05-17T06:30:04;10.32;;;3.15;;
38717;SDS011;24468;52.128;9.278;2023-05-17T06:32:31;7.32;;;1.80;;
38717;SDS011;24468;52.128;9.278;2023-05-17T06:34:56;15.25;;;2.53;;
38717;SDS011;24468;52.128;9.278;2023-05-17T06:37:22;11.57;;;2.58;;
38717;SDS011;24468;52.128;9.278;2023-05-17T06:39:51;9.75;;;2.20;;
38717;SDS011;24468;52.128;9.278;2023-05-17T06:42:17;12.93;;;2.85;;
38717;SDS011;24468;52.128;9.278;2023-05-17T06:44:43;14.70;;;3.22;;
38717;SDS011;24468;52.128;9.278;2023-05-17T06:47:08;10.77;;;2.05;;
38717;SDS011;24468;52.128;9.278;2023-05-17T06:49:34;8.90;;;2.33;;
38717;SDS011;24468;52.128;9.278;2023-05-17T06:52:01;7.50;;;2.15;;
38717;SDS011;24468;52.128;9.278;2023-05-17T06:54:29;15.23;;;2.53;;
38717;SDS011;24468;52.128;9.278;2023-05-17T06:56:59;8.40;;;1.70;;
38717;SDS011;24468;52.128;9.278;2023-05-17T06:59:27;5.18;;;1.40;;
38717;SDS011;24468;52.128;9.278;2023-05-17T07:01:53;9.68;;;2.03;;
38717;SDS011;24468;52.128;9.278;2023-05-17T07:04:19;12.32;;;2.28;;
38717;SDS011;24468;52.128;9.278;2023-05-17T07:06:45;8.60;;;1.73;;
38717;SDS011;24468;52.128;9.278;2023-05-17T07:09:10;5.72;;;2.03;;
38717;SDS011;24468;52.128;9.278;2023-05-17T07:11:36;8.50;;;1.52;;
38717;SDS011;24468;52.128;9.278;2023-05-17T07:14:02;7.35;;;1.50;;
38717;SDS011;24468;52.128;9.278;2023-05-17T07:16:27;11.18;;;2.00;;
38717;SDS011;24468;52.128;9.278;2023-05-17T07:18:53;10.90;;;1.45;;
38717;SDS011;24468;52.128;9.278;2023-05-17T07:21:18;9.95;;;1.85;;
38717;SDS011;24468;52.128;9.278;2023-05-17T07:23:44;5.03;;;1.92;;
38717;SDS011;24468;52.128;9.278;2023-05-17T07:26:09;7.05;;;1.35;;
38717;SDS011;24468;52.128;9.278;2023-05-17T07:28:35;10.38;;;1.80;;
38717;SDS011;24468;52.128;9.278;2023-05-17T07:31:01;9.20;;;1.60;;
38717;SDS011;24468;52.128;9.278;2023-05-17T07:33:26;9.45;;;1.77;;
38717;SDS011;24468;52.128;9.278;2023-05-17T07:35:52;6.43;;;1.50;;
38717;SDS011;24468;52.128;9.278;2023-05-17T07:38:18;7.03;;;1.80;;
38717;SDS011;24468;52.128;9.278;2023-05-17T07:40:43;10.30;;;1.95;;
38717;SDS011;24468;52.128;9.278;2023-05-17T07:43:09;11.60;;;2.17;;
38717;SDS011;24468;52.128;9.278;2023-05-17T07:45:34;7.55;;;1.30;;
38717;SDS011;24468;52.128;9.278;2023-05-17T07:48:00;5.65;;;1.30;;
38717;SDS011;24468;52.128;9.278;2023-05-17T07:50:25;10.52;;;2.38;;
38717;SDS011;24468;52.128;9.278;2023-05-17T07:52:51;7.15;;;1.20;;
38717;SDS011;24468;52.128;9.278;2023-05-17T07:55:17;4.72;;;2.08;;
38717;SDS011;24468;52.128;9.278;2023-05-17T07:57:43;9.15;;;1.75;;
38717;SDS011;24468;52.128;9.278;2023-05-17T08:00:11;11.45;;;1.73;;
38717;SDS011;24468;52.128;9.278;2023-05-17T08:02:38;5.60;;;2.30;;
38717;SDS011;24468;52.128;9.278;2023-05-17T08:05:05;7.18;;;1.23;;
38717;SDS011;24468;52.128;9.278;2023-05-17T08:07:32;8.02;;;1.55;;
38717;SDS011;24468;52.128;9.278;2023-05-17T08:09:57;7.78;;;1.38;;
38717;SDS011;24468;52.128;9.278;2023-05-17T08:12:23;3.70;;;0.90;;
38717;SDS011;24468;52.128;9.278;2023-05-17T08:14:49;5.32;;;1.40;;
38717;SDS011;24468;52.128;9.278;2023-05-17T08:17:15;9.55;;;1.80;;
38717;SDS011;24468;52.128;9.278;2023-05-17T08:19:41;6.40;;;1.50;;
38717;SDS011;24468;52.128;9.278;2023-05-17T08:22:06;7.70;;;1.55;;
38717;SDS011;24468;52.128;9.278;2023-05-17T08:24:32;14.82;;;2.38;;
38717;SDS011;24468;52.128;9.278;2023-05-17T08:26:57;7.70;;;2.03;;
38717;SDS011;24468;52.128;9.278;2023-05-17T08:29:23;3.80;;;0.90;;
38717;SDS011;24468;52.128;9.278;2023-05-17T08:31:48;9.75;;;2.10;;
38717;SDS011;24468;52.128;9.278;2023-05-17T08:34:15;2.97;;;1.15;;
38717;SDS011;24468;52.128;9.278;2023-05-17T08:36:41;8.02;;;1.80;;
38717;SDS011;24468;52.128;9.278;2023-05-17T08:39:06;12.00;;;1.40;;
38717;SDS011;24468;52.128;9.278;2023-05-17T08:41:32;8.82;;;2.05;;
38717;SDS011;24468;52.128;9.278;2023-05-17T08:43:58;5.20;;;1.27;;
38717;SDS011;24468;52.128;9.278;2023-05-17T08:46:24;5.25;;;1.77;;
38717;SDS011;24468;52.128;9.278;2023-05-17T08:48:51;10.68;;;2.22;;
38717;SDS011;24468;52.128;9.278;2023-05-17T08:51:23;7.35;;;1.88;;
38717;SDS011;24468;52.128;9.278;2023-05-17T08:53:49;7.70;;;1.50;;
38717;SDS011;24468;52.128;9.278;2023-05-17T08:56:15;5.53;;;1.65;;
38717;SDS011;24468;52.128;9.278;2023-05-17T08:58:43;5.95;;;1.40;;
38717;SDS011;24468;52.128;9.278;2023-05-17T09:01:12;10.65;;;2.47;;
38717;SDS011;24468;52.128;9.278;2023-05-17T09:03:38;5.47;;;1.13;;
38717;SDS011;24468;52.128;9.278;2023-05-17T09:06:06;8.73;;;1.85;;
38717;SDS011;24468;52.128;9.278;2023-05-17T09:08:35;6.38;;;1.40;;
38717;SDS011;24468;52.128;9.278;2023-05-17T09:11:01;6.15;;;1.50;;
38717;SDS011;24468;52.128;9.278;2023-05-17T09:13:27;8.63;;;1.65;;
38717;SDS011;24468;52.128;9.278;2023-05-17T09:15:53;5.25;;;1.50;;
38717;SDS011;24468;52.128;9.278;2023-05-17T09:18:18;7.30;;;1.30;;
38717;SDS011;24468;52.128;9.278;2023-05-17T09:21:00;9.70;;;2.22;;
38717;SDS011;24468;52.128;9.278;2023-05-17T09:23:30;4.25;;;1.45;;
38717;SDS011;24468;52.128;9.278;2023-05-17T09:26:03;6.05;;;1.25;;
38717;SDS011;24468;52.128;9.278;2023-05-17T09:28:36;8.82;;;1.55;;
38717;SDS011;24468;52.128;9.278;2023-05-17T09:31:07;9.90;;;2.40;;
38717;SDS011;24468;52.128;9.278;2023-05-17T09:33:41;10.32;;;1.73;;
38717;SDS011;24468;52.128;9.278;2023-05-17T09:36:15;7.65;;;1.27;;
38717;SDS011;24468;52.128;9.278;2023-05-17T09:38:51;5.30;;;1.20;;
38717;SDS011;24468;52.128;9.278;2023-05-17T09:41:30;6.47;;;1.63;;
38717;SDS011;24468;52.128;9.278;2023-05-17T09:44:01;6.75;;;1.10;;
38717;SDS011;24468;52.128;9.278;2023-05-17T09:46:33;9.82;;;1.50;;
38717;SDS011;24468;52.128;9.278;2023-05-17T09:49:02;8.23;;;1.70;;
38717;SDS011;24468;52.128;9.278;2023-05-17T09:54:12;6.72;;;1.50;;
38717;SDS011;24468;52.128;9.278;2023-05-17T09:56:37;5.25;;;1.65;;
38717;SDS011;24468;52.128;9.278;2023-05-17T09:59:09;6.93;;;1.80;;
38717;SDS011;24468;52.128;9.278;2023-05-17T10:01:40;5.97;;;1.70;;
38717;SDS011;24468;52.128;9.278;2023-05-17T10:04:09;11.00;;;2.13;;
38717;SDS011;24468;52.128;9.278;2023-05-17T10:06:40;6.15;;;1.17;;
38717;SDS011;24468;52.128;9.278;2023-05-17T10:09:06;8.93;;;1.83;;
38717;SDS011;24468;52.128;9.278;2023-05-17T10:11:36;11.52;;;2.38;;
38717;SDS011;24468;52.128;9.278;2023-05-17T10:14:11;10.60;;;1.73;;
38717;SDS011;24468;52.128;9.278;2023-05-17T10:16:42;5.38;;;1.13;;
38717;SDS011;24468;52.128;9.278;2023-05-17T10:19:08;7.93;;;2.08;;
38717;SDS011;24468;52.128;9.278;2023-05-17T10:21:35;6.38;;;1.40;;
38717;SDS011;24468;52.128;9.278;2023-05-17T10:24:03;9.30;;;1.77;;
38717;SDS011;24468;52.128;9.278;2023-05-17T10:26:30;8.85;;;2.33;;
38717;SDS011;24468;52.128;9.278;2023-05-17T10:28:57;7.82;;;2.15;;
38717;SDS011;24468;52.128;9.278;2023-05-17T10:31:26;7.07;;;1.65;;
38717;SDS011;24468;52.128;9.278;2023-05-17T10:34:00;5.75;;;2.22;;
38717;SDS011;24468;52.128;9.278;2023-05-17T10:36:29;12.30;;;1.83;;
38717;SDS011;24468;52.128;9.278;2023-05-17T10:38:55;8.57;;;2.35;;
38717;SDS011;24468;52.128;9.278;2023-05-17T10:41:23;7.70;;;2.05;;
38717;SDS011;24468;52.128;9.278;2023-05-17T10:43:52;6.05;;;1.58;;
38717;SDS011;24468;52.128;9.278;2023-05-17T10:46:19;7.80;;;1.48;;
38717;SDS011;24468;52.128;9.278;2023-05-17T10:48:50;5.25;;;1.67;;
38717;SDS011;24468;52.128;9.278;2023-05-17T10:51:36;5.23;;;1.20;;
38717;SDS011;24468;52.128;9.278;2023-05-17T10:54:02;8.68;;;1.45;;
38717;SDS011;24468;52.128;9.278;2023-05-17T11:04:39;5.22;;;1.70;;
38717;SDS011;24468;52.128;9.278;2023-05-17T11:09:53;4.03;;;1.75;;
38717;SDS011;24468;52.128;9.278;2023-05-17T11:17:34;5.53;;;1.80;;
38717;SDS011;24468;52.128;9.278;2023-05-17T11:22:41;7.78;;;1.95;;
38717;SDS011;24468;52.128;9.278;2023-05-17T11:25:13;7.15;;;1.83;;
38717;SDS011;24468;52.128;9.278;2023-05-17T11:27:43;7.80;;;2.05;;
38717;SDS011;24468;52.128;9.278;2023-05-17T11:30:21;6.70;;;1.85;;
38717;SDS011;24468;52.128;9.278;2023-05-17T11:33:01;11.00;;;1.95;;
38717;SDS011;24468;52.128;9.278;2023-05-17T11:35:34;8.25;;;1.50;;
38717;SDS011;24468;52.128;9.278;2023-05-17T11:38:12;6.80;;;1.55;;
38717;SDS011;24468;52.128;9.278;2023-05-17T11:40:46;13.13;;;2.25;;
38717;SDS011;24468;52.128;9.278;2023-05-17T11:43:20;8.38;;;2.13;;
38717;SDS011;24468;52.128;9.278;2023-05-17T11:45:48;8.07;;;2.00;;
38717;SDS011;24468;52.128;9.278;2023-05-17T11:48:21;8.38;;;1.65;;
38717;SDS011;24468;52.128;9.278;2023-05-17T11:50:48;11.45;;;2.60;;
38717;SDS011;24468;52.128;9.278;2023-05-17T11:53:17;11.75;;;2.17;;
38717;SDS011;24468;52.128;9.278;2023-05-17T11:55:47;5.43;;;1.95;;
38717;SDS011;24468;52.128;9.278;2023-05-17T11:58:15;5.60;;;1.70;;
38717;SDS011;24468;52.128;9.278;2023-05-17T12:00:44;6.53;;;2.17;;
38717;SDS011;24468;52.128;9.278;2023-05-17T12:03:17;6.80;;;2.03;;
38717;SDS011;24468;52.128;9.278;2023-05-17T12:05:45;3.50;;;1.23;;
38717;SDS011;24468;52.128;9.278;2023-05-17T12:08:17;10.55;;;2.42;;
38717;SDS011;24468;52.128;9.278;2023-05-17T12:10:49;9.65;;;2.35;;
38717;SDS011;24468;52.128;9.278;2023-05-17T12:15:55;6.03;;;1.77;;
38717;SDS011;24468;52.128;9.278;2023-05-17T12:18:36;7.43;;;2.50;;
38717;SDS011;24468;52.128;9.278;2023-05-17T12:21:04;6.85;;;2.33;;
38717;SDS011;24468;52.128;9.278;2023-05-17T12:23:31;10.45;;;1.98;;
38717;SDS011;24468;52.128;9.278;2023-05-17T12:26:01;12.75;;;2.30;;
38717;SDS011;24468;52.128;9.278;2023-05-17T12:28:31;6.90;;;2.07;;
38717;SDS011;24468;52.128;9.278;2023-05-17T12:30:58;5.30;;;1.80;;
38717;SDS011;24468;52.128;9.278;2023-05-17T12:33:31;6.22;;;1.67;;
38717;SDS011;24468;52.128;9.278;2023-05-17T12:36:00;6.20;;;1.60;;
38717;SDS011;24468;52.128;9.278;2023-05-17T12:38:29;7.25;;;1.60;;
38717;SDS011;24468;52.128;9.278;2023-05-17T12:41:01;4.85;;;1.33;;
38717;SDS011;24468;52.128;9.278;2023-05-17T12:43:28;6.45;;;2.03;;
38717;SDS011;24468;52.128;9.278;2023-05-17T12:46:06;4.25;;;1.38;;
38717;SDS011;24468;52.128;9.278;2023-05-17T12:48:37;5.53;;;1.80;;
38717;SDS011;24468;52.128;9.278;2023-05-17T12:51:09;9.13;;;1.80;;
38717;SDS011;24468;52.128;9.278;2023-05-17T12:53:40;7.60;;;1.80;;
38717;SDS011;24468;52.128;9.278;2023-05-17T12:56:23;8.90;;;1.70;;
38717;SDS011;24468;52.128;9.278;2023-05-17T13:01:42;7.53;;;2.13;;
38717;SDS011;24468;52.128;9.278;2023-05-17T13:04:13;7.15;;;2.05;;
38717;SDS011;24468;52.128;9.278;2023-05-17T13:06:50;6.10;;;1.65;;
38717;SDS011;24468;52.128;9.278;2023-05-17T13:09:18;4.90;;;1.92;;
38717;SDS011;24468;52.128;9.278;2023-05-17T13:11:49;9.68;;;2.22;;
38717;SDS011;24468;52.128;9.278;2023-05-17T13:14:39;7.45;;;2.88;;
38717;SDS011;24468;52.128;9.278;2023-05-17T13:17:09;8.43;;;2.17;;
38717;SDS011;24468;52.128;9.278;2023-05-17T13:19:38;8.60;;;1.98;;
38717;SDS011;24468;52.128;9.278;2023-05-17T13:22:04;11.15;;;2.58;;
38717;SDS011;24468;52.128;9.278;2023-05-17T13:24:35;11.02;;;2.55;;
38717;SDS011;24468;52.128;9.278;2023-05-17T13:27:02;10.02;;;2.67;;
38717;SDS011;24468;52.128;9.278;2023-05-17T13:29:28;7.15;;;2.05;;
38717;SDS011;24468;52.128;9.278;2023-05-17T13:31:55;6.68;;;1.70;;
38717;SDS011;24468;52.128;9.278;2023-05-17T13:34:20;7.22;;;1.80;;
38717;SDS011;24468;52.128;9.278;2023-05-17T13:36:46;5.97;;;2.15;;
38717;SDS011;24468;52.128;9.278;2023-05-17T13:39:12;6.20;;;2.30;;
38717;SDS011;24468;52.128;9.278;2023-05-17T13:41:38;7.43;;;2.13;;
38717;SDS011;24468;52.128;9.278;2023-05-17T13:44:04;7.07;;;2.00;;
38717;SDS011;24468;52.128;9.278;2023-05-17T13:46:30;6.60;;;1.48;;
38717;SDS011;24468;52.128;9.278;2023-05-17T13:48:56;10.27;;;1.98;;
38717;SDS011;24468;52.128;9.278;2023-05-17T13:51:22;6.60;;;1.85;;
38717;SDS011;24468;52.128;9.278;2023-05-17T13:53:49;8.23;;;1.92;;
38717;SDS011;24468;52.128;9.278;2023-05-17T13:56:15;5.72;;;1.92;;
38717;SDS011;24468;52.128;9.278;2023-05-17T13:58:41;5.68;;;1.92;;
38717;SDS011;24468;52.128;9.278;2023-05-17T14:01:07;7.78;;;1.80;;
38717;SDS011;24468;52.128;9.278;2023-05-17T14:03:32;10.45;;;1.80;;
38717;SDS011;24468;52.128;9.278;2023-05-17T14:05:58;6.78;;;1.60;;
38717;SDS011;24468;52.128;9.278;2023-05-17T14:08:24;8.70;;;1.95;;
38717;SDS011;24468;52.128;9.278;2023-05-17T14:10:50;6.25;;;2.05;;
38717;SDS011;24468;52.128;9.278;2023-05-17T14:13:16;8.77;;;1.63;;
38717;SDS011;24468;52.128;9.278;2023-05-17T14:15:41;7.95;;;1.42;;
38717;SDS011;24468;52.128;9.278;2023-05-17T14:18:07;8.80;;;2.05;;
38717;SDS011;24468;52.128;9.278;2023-05-17T14:20:33;13.00;;;2.03;;
38717;SDS011;24468;52.128;9.278;2023-05-17T14:22:59;5.40;;;1.63;;
38717;SDS011;24468;52.128;9.278;2023-05-17T14:25:25;4.68;;;1.23;;
38717;SDS011;24468;52.128;9.278;2023-05-17T14:27:51;6.68;;;1.67;;
38717;SDS011;24468;52.128;9.278;2023-05-17T14:30:17;5.43;;;1.42;;
38717;SDS011;24468;52.128;9.278;2023-05-17T14:32:44;5.80;;;1.48;;
38717;SDS011;24468;52.128;9.278;2023-05-17T14:35:10;7.82;;;2.33;;
38717;SDS011;24468;52.128;9.278;2023-05-17T14:37:36;10.45;;;2.28;;
38717;SDS011;24468;52.128;9.278;2023-05-17T14:40:02;5.47;;;1.40;;
38717;SDS011;24468;52.128;9.278;2023-05-17T14:42:29;6.15;;;1.67;;
38717;SDS011;24468;52.128;9.278;2023-05-17T14:44:55;9.00;;;1.95;;
38717;SDS011;24468;52.128;9.278;2023-05-17T14:47:21;4.82;;;1.40;;
38717;SDS011;24468;52.128;9.278;2023-05-17T14:49:47;2.25;;;1.13;;
38717;SDS011;24468;52.128;9.278;2023-05-17T14:52:12;8.00;;;1.63;;
38717;SDS011;24468;52.128;9.278;2023-05-17T14:54:39;6.47;;;1.40;;
38717;SDS011;24468;52.128;9.278;2023-05-17T14:57:05;7.40;;;2.22;;
38717;SDS011;24468;52.128;9.278;2023-05-17T14:59:32;6.30;;;1.52;;
38717;SDS011;24468;52.128;9.278;2023-05-17T15:01:58;8.23;;;2.00;;
38717;SDS011;24468;52.128;9.278;2023-05-17T15:04:24;8.73;;;1.92;;
38717;SDS011;24468;52.128;9.278;2023-05-17T15:06:49;8.10;;;1.20;;
38717;SDS011;24468;52.128;9.278;2023-05-17T15:09:16;5.80;;;1.77;;
38717;SDS011;24468;52.128;9.278;2023-05-17T15:11:43;4.97;;;1.15;;
38717;SDS011;24468;52.128;9.278;2023-05-17T15:14:09;5.18;;;1.33;;
38717;SDS011;24468;52.128;9.278;2023-05-17T15:16:36;7.20;;;1.67;;
38717;SDS011;24468;52.128;9.278;2023-05-17T15:19:02;4.60;;;1.45;;
38717;SDS011;24468;52.128;9.278;2023-05-17T15:21:28;5.75;;;1.40;;
38717;SDS011;24468;52.128;9.278;2023-05-17T15:23:53;4.05;;;1.27;;
38717;SDS011;24468;52.128;9.278;2023-05-17T15:26:19;5.18;;;1.20;;
38717;SDS011;24468;52.128;9.278;2023-05-17T15:28:46;9.10;;;1.63;;